Time;durP1;ratioP1;P1;durP2;ratioP2;P2;SDS_P1;SDS_P2;PMS_P1;PMS_P2;Temp;Humidity;BMP_temperature;BMP_pressure;BME280_temperature;BME280_humidity;BME280_pressure;Samples;Min_cycle;Max_cycle;Signal;HPM_P1;HPM_P2
2022/01/10 00:02:12;;;;;;;24.35;5.13;;;3.30;99.90;;;;;;5032827;28;20041;-61
2022/01/10 00:04:37;;;;;;;15.20;4.13;;;3.30;99.90;;;;;;5021758;28;20067;-61
2022/01/10 00:07:04;;;;;;;22.92;5.32;;;3.30;99.90;;;;;;5029013;28;20341;-61
2022/01/10 00:09:30;;;;;;;16.85;4.32;;;3.40;99.90;;;;;;5029382;28;20091;-61
2022/01/10 00:11:55;;;;;;;18.27;4.32;;;3.30;99.90;;;;;;5012100;28;20124;-61
2022/01/10 00:14:21;;;;;;;16.92;4.85;;;3.30;99.90;;;;;;5022538;28;20045;-61
2022/01/10 00:16:47;;;;;;;18.92;4.32;;;3.20;99.90;;;;;;5030363;28;20045;-61
2022/01/10 00:19:12;;;;;;;14.88;3.35;;;3.20;99.90;;;;;;5025211;28;20049;-61
2022/01/10 00:21:38;;;;;;;12.43;3.72;;;3.10;99.90;;;;;;5024931;28;20393;-61
2022/01/10 00:24:03;;;;;;;16.88;3.95;;;3.10;99.90;;;;;;5006558;28;20640;-61
2022/01/10 00:26:29;;;;;;;13.68;3.30;;;3.00;99.90;;;;;;5025958;28;20587;-61
2022/01/10 00:28:54;;;;;;;11.10;3.08;;;3.00;99.90;;;;;;5024779;28;20393;-61
2022/01/10 00:31:20;;;;;;;9.20;3.08;;;2.90;99.90;;;;;;5015885;28;20112;-61
2022/01/10 00:33:46;;;;;;;9.98;4.32;;;2.90;99.90;;;;;;5010929;28;20065;-61
2022/01/10 00:36:12;;;;;;;12.00;3.65;;;2.90;99.90;;;;;;5018427;28;20422;-61
2022/01/10 00:38:37;;;;;;;12.57;4.32;;;2.80;99.90;;;;;;5020540;28;20049;-61
2022/01/10 00:41:03;;;;;;;16.58;4.30;;;2.80;99.90;;;;;;5032647;28;20056;-61
2022/01/10 00:43:31;;;;;;;18.25;3.67;;;2.70;99.90;;;;;;5033246;28;20045;-61
2022/01/10 00:45:58;;;;;;;16.33;4.28;;;2.80;99.90;;;;;;5023563;28;20587;-61
2022/01/10 00:48:24;;;;;;;16.45;5.45;;;2.80;99.90;;;;;;5031663;28;20045;-61
2022/01/10 00:50:50;;;;;;;14.57;3.65;;;2.80;99.90;;;;;;5006585;28;20100;-61
2022/01/10 00:53:15;;;;;;;13.07;3.63;;;2.80;99.90;;;;;;5015939;28;20045;-61
2022/01/10 00:55:41;;;;;;;12.40;3.58;;;2.80;99.90;;;;;;5008909;28;20093;-61
2022/01/10 00:58:06;;;;;;;10.05;2.80;;;2.80;99.90;;;;;;5014726;28;20044;-61
2022/01/10 01:00:32;;;;;;;9.43;2.63;;;2.80;99.90;;;;;;5030105;28;20050;-61
2022/01/10 01:02:58;;;;;;;12.32;3.45;;;2.80;99.90;;;;;;5028813;28;20034;-61
2022/01/10 01:05:26;;;;;;;15.60;3.75;;;2.70;99.90;;;;;;5024537;28;20045;-61
2022/01/10 01:07:52;;;;;;;15.98;3.53;;;2.70;99.90;;;;;;5023248;28;20038;-61
2022/01/10 01:10:50;;;;;;;11.18;3.22;;;2.70;99.90;;;;;;5026549;28;20046;-61
2022/01/10 01:15:55;;;;;;;14.27;3.88;;;2.70;99.90;;;;;;5011670;28;20405;-61
2022/01/10 01:18:43;;;;;;;9.57;3.13;;;2.60;99.90;;;;;;5027946;28;20139;-61
2022/01/10 01:24:06;;;;;;;12.57;4.07;;;2.60;99.90;;;;;;5022412;28;20501;-61
2022/01/10 01:26:38;;;;;;;11.63;4.35;;;2.60;99.90;;;;;;5001805;28;20042;-61
2022/01/10 01:29:09;;;;;;;15.13;3.95;;;2.50;99.90;;;;;;5007961;28;20057;-61
2022/01/10 01:31:36;;;;;;;12.20;4.80;;;2.50;99.90;;;;;;5024271;28;20092;-61
2022/01/10 01:34:02;;;;;;;14.02;4.70;;;2.50;99.90;;;;;;5025313;28;20132;-61
2022/01/10 01:36:30;;;;;;;8.38;3.88;;;2.50;99.90;;;;;;5021397;28;20468;-61
2022/01/10 01:38:55;;;;;;;14.00;4.78;;;2.60;99.90;;;;;;5016763;28;20049;-61
2022/01/10 01:43:56;;;;;;;15.20;4.85;;;2.50;99.90;;;;;;5025880;28;20053;-61
2022/01/10 01:46:22;;;;;;;10.68;3.95;;;2.50;99.90;;;;;;5023705;28;20041;-61
2022/01/10 01:48:49;;;;;;;14.50;4.30;;;2.50;99.90;;;;;;5018187;28;20045;-61
2022/01/10 01:51:15;;;;;;;17.27;5.10;;;2.40;99.90;;;;;;5020446;28;20064;-61
2022/01/10 01:53:42;;;;;;;13.43;4.32;;;2.40;99.90;;;;;;5019044;28;20447;-61
2022/01/10 01:56:09;;;;;;;12.60;4.63;;;2.40;99.90;;;;;;5014389;28;20038;-60
2022/01/10 01:58:37;;;;;;;21.60;4.82;;;2.40;99.90;;;;;;5017915;28;20444;-60
2022/01/10 02:01:04;;;;;;;16.17;3.95;;;2.40;99.90;;;;;;5014135;28;20045;-60
2022/01/10 02:03:33;;;;;;;14.57;4.47;;;2.40;99.90;;;;;;5009902;28;20471;-61
2022/01/10 02:05:58;;;;;;;13.30;4.38;;;2.50;99.90;;;;;;5026684;28;20121;-61
2022/01/10 02:08:24;;;;;;;16.48;4.65;;;2.40;99.90;;;;;;5023028;28;20053;-61
2022/01/10 02:10:49;;;;;;;14.18;5.00;;;2.50;99.90;;;;;;5019075;28;20081;-60
2022/01/10 02:13:15;;;;;;;14.35;5.32;;;2.40;99.90;;;;;;5020837;28;20080;-60
2022/01/10 02:15:50;;;;;;;14.95;6.15;;;2.40;99.90;;;;;;5018196;28;20041;-60
2022/01/10 02:18:17;;;;;;;14.70;5.13;;;2.40;99.90;;;;;;5027936;28;20520;-60
2022/01/10 02:20:43;;;;;;;15.35;5.20;;;2.30;99.90;;;;;;5024190;28;20080;-61
2022/01/10 02:23:09;;;;;;;18.33;4.72;;;2.30;99.90;;;;;;5028190;28;20080;-61
2022/01/10 02:25:35;;;;;;;10.88;4.25;;;2.20;99.90;;;;;;5025867;28;21909;-61
2022/01/10 02:28:00;;;;;;;15.75;5.13;;;2.20;99.90;;;;;;5012745;28;20046;-60
2022/01/10 02:30:27;;;;;;;20.05;5.13;;;2.20;99.90;;;;;;5023947;28;20474;-61
2022/01/10 02:32:57;;;;;;;16.52;4.38;;;2.10;99.90;;;;;;5025265;28;20037;-61
2022/01/10 02:35:27;;;;;;;15.02;4.82;;;2.10;99.90;;;;;;5022014;28;20116;-60
2022/01/10 02:37:55;;;;;;;18.98;4.53;;;2.20;99.90;;;;;;5020554;28;20038;-62
2022/01/10 02:40:24;;;;;;;15.05;4.68;;;2.20;99.90;;;;;;5021249;28;20145;-60
2022/01/10 02:42:50;;;;;;;21.30;4.22;;;2.20;99.90;;;;;;5019986;28;20128;-61
2022/01/10 02:45:17;;;;;;;20.73;5.45;;;2.20;99.90;;;;;;5025871;28;20041;-61
2022/01/10 02:47:43;;;;;;;15.77;5.00;;;2.20;99.90;;;;;;5026279;28;20048;-61
2022/01/10 02:50:10;;;;;;;22.60;5.75;;;2.20;99.90;;;;;;5006161;28;20053;-61
2022/01/10 02:52:37;;;;;;;16.00;5.45;;;2.20;99.90;;;;;;5024371;28;20091;-61
2022/01/10 02:55:05;;;;;;;16.55;5.15;;;2.20;99.90;;;;;;5004393;28;20500;-62
2022/01/10 02:57:31;;;;;;;15.48;4.05;;;2.20;99.90;;;;;;5018582;28;20041;-61
2022/01/10 02:59:58;;;;;;;18.88;4.97;;;2.20;99.90;;;;;;5009591;28;20095;-62
2022/01/10 03:02:29;;;;;;;21.70;5.70;;;2.20;99.90;;;;;;5024371;28;20033;-61
2022/01/10 03:04:54;;;;;;;18.02;5.78;;;2.30;99.90;;;;;;5022207;28;20056;-61
2022/01/10 03:07:23;;;;;;;21.65;5.10;;;2.20;99.90;;;;;;5020253;28;20049;-60
2022/01/10 03:09:50;;;;;;;16.85;5.72;;;2.10;99.90;;;;;;5013470;28;20038;-61
2022/01/10 03:12:16;;;;;;;21.05;6.10;;;2.10;99.90;;;;;;5017810;28;20088;-61
2022/01/10 03:14:43;;;;;;;17.05;5.95;;;2.20;99.90;;;;;;5010428;28;20045;-61
2022/01/10 03:17:10;;;;;;;21.45;7.28;;;2.20;99.90;;;;;;5026089;28;20041;-61
2022/01/10 03:19:36;;;;;;;23.17;7.05;;;2.30;99.90;;;;;;5016653;28;20053;-61
2022/01/10 03:22:02;;;;;;;15.52;6.18;;;2.30;99.90;;;;;;5019414;28;20080;-61
2022/01/10 03:24:28;;;;;;;22.63;7.40;;;2.50;99.90;;;;;;5026974;28;20574;-61
2022/01/10 03:26:53;;;;;;;20.73;6.40;;;2.50;99.90;;;;;;5022261;28;20054;-61
2022/01/10 03:29:19;;;;;;;17.63;7.95;;;2.60;99.90;;;;;;5019179;28;20053;-61
2022/01/10 03:31:45;;;;;;;25.92;8.90;;;2.60;99.90;;;;;;5012575;28;20041;-61
2022/01/10 03:34:12;;;;;;;16.58;6.43;;;2.70;99.90;;;;;;5013945;28;20038;-61
2022/01/10 03:36:39;;;;;;;15.60;5.55;;;2.50;99.90;;;;;;5025179;28;20041;-61
2022/01/10 03:39:04;;;;;;;27.63;7.82;;;2.50;99.90;;;;;;5025394;28;20576;-61
2022/01/10 03:41:30;;;;;;;18.02;6.82;;;2.50;99.90;;;;;;5026323;28;20049;-61
2022/01/10 03:43:55;;;;;;;16.67;6.28;;;2.40;99.90;;;;;;5021035;28;20370;-61
2022/01/10 03:46:21;;;;;;;20.27;5.90;;;2.50;99.90;;;;;;5015740;28;20042;-61
2022/01/10 03:48:46;;;;;;;23.60;7.63;;;2.40;99.90;;;;;;5016492;28;20038;-60
2022/01/10 03:51:12;;;;;;;21.67;7.13;;;2.40;99.90;;;;;;5023561;28;20081;-60
2022/01/10 03:53:38;;;;;;;16.80;6.70;;;2.50;99.90;;;;;;5023608;28;20413;-61
2022/01/10 03:56:03;;;;;;;12.38;6.22;;;2.50;99.90;;;;;;5018802;28;20060;-61
2022/01/10 03:58:29;;;;;;;13.32;6.25;;;2.40;99.90;;;;;;5013224;28;20099;-61
2022/01/10 04:00:55;;;;;;;28.25;6.78;;;2.40;99.90;;;;;;5017154;28;20058;-61
2022/01/10 04:03:21;;;;;;;11.80;5.72;;;2.40;99.90;;;;;;5011378;28;20050;-61
2022/01/10 04:05:46;;;;;;;18.10;7.25;;;2.30;99.90;;;;;;5017235;28;20120;-61
2022/01/10 04:08:12;;;;;;;20.10;6.72;;;2.30;99.90;;;;;;5005308;28;20053;-60
2022/01/10 04:10:38;;;;;;;16.33;6.10;;;2.20;99.90;;;;;;5017851;28;20046;-60
2022/01/10 04:13:04;;;;;;;11.80;5.70;;;2.20;99.90;;;;;;5015666;28;20100;-60
2022/01/10 04:15:29;;;;;;;12.95;5.28;;;2.20;99.90;;;;;;5017563;28;20050;-60
2022/01/10 04:17:57;;;;;;;8.98;5.15;;;2.20;99.90;;;;;;5023133;28;20034;-60
2022/01/10 04:20:25;;;;;;;18.60;5.70;;;2.20;99.90;;;;;;5023422;28;20041;-61
2022/01/10 04:22:51;;;;;;;12.02;6.03;;;2.20;99.90;;;;;;5026604;28;20041;-60
2022/01/10 04:25:17;;;;;;;13.38;5.28;;;2.20;99.90;;;;;;5026637;28;20048;-60
2022/01/10 04:27:43;;;;;;;11.70;5.78;;;2.10;99.90;;;;;;5019609;28;20053;-61
2022/01/10 04:30:10;;;;;;;14.90;5.95;;;2.20;99.90;;;;;;5030186;28;20041;-61
2022/01/10 04:32:36;;;;;;;16.00;5.45;;;2.20;99.90;;;;;;5018577;28;20064;-61
2022/01/10 04:35:03;;;;;;;16.02;6.72;;;2.10;99.90;;;;;;5020649;28;20052;-61
2022/01/10 04:37:29;;;;;;;15.93;6.55;;;2.10;99.90;;;;;;5028907;28;20037;-61
2022/01/10 04:39:54;;;;;;;16.52;6.35;;;2.10;99.90;;;;;;5001936;28;20060;-61
2022/01/10 04:42:20;;;;;;;15.80;6.05;;;2.10;99.90;;;;;;5026354;28;20057;-61
2022/01/10 04:44:45;;;;;;;16.45;5.90;;;2.10;99.90;;;;;;5024873;28;20052;-61
2022/01/10 04:47:11;;;;;;;14.43;6.70;;;2.00;99.90;;;;;;5009286;28;20133;-60
2022/01/10 04:52:45;;;;;;;15.25;5.97;;;2.00;99.90;;;;;;4959158;28;20055;-61
2022/01/10 04:55:11;;;;;;;10.65;5.20;;;2.00;99.90;;;;;;4962660;28;20079;-61
2022/01/10 04:57:37;;;;;;;14.75;6.15;;;2.10;99.90;;;;;;4987751;28;20062;-61
2022/01/10 05:00:04;;;;;;;10.50;6.05;;;2.00;99.90;;;;;;5022730;28;20148;-61
2022/01/10 05:02:30;;;;;;;9.65;5.85;;;2.10;99.90;;;;;;5011016;28;20375;-61
2022/01/10 05:04:56;;;;;;;10.10;5.45;;;2.00;99.90;;;;;;5026931;28;20049;-61
2022/01/10 05:07:21;;;;;;;12.95;6.57;;;2.00;99.90;;;;;;5028979;28;20046;-61
2022/01/10 05:09:47;;;;;;;11.77;5.70;;;2.00;99.90;;;;;;5021205;28;20050;-61
2022/01/10 05:12:13;;;;;;;14.77;6.75;;;2.00;99.90;;;;;;5019662;28;20049;-61
2022/01/10 05:14:39;;;;;;;9.88;5.63;;;1.90;99.90;;;;;;5009486;28;20096;-61
2022/01/10 05:17:05;;;;;;;13.25;5.93;;;1.80;99.90;;;;;;5020955;28;20555;-61
2022/01/10 05:19:30;;;;;;;11.63;5.50;;;1.80;99.90;;;;;;5023619;28;20041;-61
2022/01/10 05:21:56;;;;;;;14.65;6.32;;;1.90;99.90;;;;;;5016280;28;20051;-61
2022/01/10 05:24:22;;;;;;;9.82;5.97;;;1.90;99.90;;;;;;5017686;28;20052;-61
2022/01/10 05:26:47;;;;;;;14.10;6.65;;;1.90;99.90;;;;;;5023101;28;20060;-60
2022/01/10 05:29:13;;;;;;;8.50;6.10;;;1.90;99.90;;;;;;5024096;28;20096;-61
2022/01/10 05:31:39;;;;;;;13.88;6.07;;;1.90;99.90;;;;;;5027799;28;20049;-61
2022/01/10 05:34:05;;;;;;;14.95;6.20;;;1.90;99.90;;;;;;5026677;28;20064;-61
2022/01/10 05:36:30;;;;;;;11.77;6.13;;;1.80;99.90;;;;;;5029101;28;20041;-61
2022/01/10 05:38:56;;;;;;;20.00;7.20;;;1.80;99.90;;;;;;5010746;28;20053;-61
2022/01/10 05:41:22;;;;;;;16.45;8.30;;;1.80;99.90;;;;;;4993744;28;20049;-61
2022/01/10 05:43:49;;;;;;;15.75;6.90;;;1.90;99.90;;;;;;5016077;28;20539;-61
2022/01/10 05:46:21;;;;;;;10.70;7.25;;;1.90;99.90;;;;;;5019625;28;20056;-61
2022/01/10 05:48:49;;;;;;;15.75;8.05;;;1.90;99.90;;;;;;5026454;28;20030;-61
2022/01/10 05:51:19;;;;;;;17.88;8.43;;;1.90;99.90;;;;;;5017363;28;20041;-61
2022/01/10 05:53:45;;;;;;;15.63;8.30;;;2.00;99.90;;;;;;5020483;28;20052;-61
2022/01/10 05:56:11;;;;;;;18.13;9.52;;;2.00;99.90;;;;;;5026704;28;20049;-60
2022/01/10 05:58:37;;;;;;;30.85;11.10;;;2.00;99.90;;;;;;5027056;28;20397;-61
2022/01/10 06:01:03;;;;;;;105.63;13.98;;;2.00;99.90;;;;;;5028388;28;20041;-61
2022/01/10 06:03:28;;;;;;;60.88;13.02;;;2.00;99.90;;;;;;5029350;28;20531;-61
2022/01/10 06:05:54;;;;;;;38.78;12.88;;;2.00;99.90;;;;;;5010738;28;20073;-61
2022/01/10 06:08:20;;;;;;;71.20;12.07;;;2.00;99.90;;;;;;5016906;28;20069;-61
2022/01/10 06:10:45;;;;;;;85.13;14.77;;;2.00;99.90;;;;;;5011500;28;20045;-61
2022/01/10 06:13:11;;;;;;;104.25;13.68;;;2.00;99.90;;;;;;5022009;28;20474;-61
2022/01/10 06:15:37;;;;;;;68.15;12.48;;;2.00;99.90;;;;;;5020521;28;20041;-61
2022/01/10 06:18:03;;;;;;;82.03;13.63;;;2.00;99.90;;;;;;5021496;28;20120;-61
2022/01/10 06:20:29;;;;;;;85.47;12.98;;;2.00;99.90;;;;;;5017661;28;20401;-61
2022/01/10 06:22:54;;;;;;;103.25;15.10;;;2.00;99.90;;;;;;5004794;28;20460;-61
2022/01/10 06:25:22;;;;;;;114.55;14.88;;;2.00;99.90;;;;;;5021077;28;20046;-61
2022/01/10 06:27:48;;;;;;;120.30;16.25;;;1.90;99.90;;;;;;5025908;28;20096;-61
2022/01/10 06:30:14;;;;;;;174.07;17.80;;;2.00;99.90;;;;;;5023751;28;20080;-61
2022/01/10 06:32:40;;;;;;;192.10;18.50;;;2.00;99.90;;;;;;5023359;28;20045;-61
2022/01/10 06:35:06;;;;;;;220.38;19.55;;;2.00;99.90;;;;;;5025287;28;20038;-61
2022/01/10 06:37:31;;;;;;;182.52;18.27;;;1.90;99.90;;;;;;5016321;28;20046;-60
2022/01/10 06:39:57;;;;;;;153.77;15.90;;;1.90;99.90;;;;;;5021953;28;20132;-61
2022/01/10 06:42:23;;;;;;;152.77;14.98;;;1.90;99.90;;;;;;5025308;28;20045;-61
2022/01/10 06:44:48;;;;;;;147.13;14.60;;;1.90;99.90;;;;;;5027232;28;20481;-61
2022/01/10 06:47:14;;;;;;;160.77;14.85;;;1.90;99.90;;;;;;5027891;28;20405;-61
2022/01/10 06:49:40;;;;;;;114.47;13.93;;;1.90;99.90;;;;;;5023738;28;20038;-61
2022/01/10 06:52:06;;;;;;;157.10;14.45;;;1.90;99.90;;;;;;5019988;28;20041;-61
2022/01/10 06:54:31;;;;;;;166.77;13.38;;;1.80;99.90;;;;;;5019770;28;20115;-61
2022/01/10 06:56:59;;;;;;;250.82;16.80;;;1.80;99.90;;;;;;5018680;28;20045;-61
2022/01/10 06:59:26;;;;;;;162.23;14.98;;;1.90;99.90;;;;;;5019023;28;20078;-61
2022/01/10 07:01:53;;;;;;;157.02;14.18;;;1.80;99.90;;;;;;5013156;28;20046;-61
2022/01/10 07:04:19;;;;;;;161.50;13.85;;;1.70;99.90;;;;;;5018135;28;20512;-61
2022/01/10 07:06:44;;;;;;;180.20;14.65;;;1.80;99.90;;;;;;5020024;28;20038;-61
2022/01/10 07:09:10;;;;;;;111.05;11.93;;;1.80;99.90;;;;;;5016470;28;20045;-61
2022/01/10 07:11:36;;;;;;;83.85;12.15;;;1.80;99.90;;;;;;5016905;28;20508;-61
2022/01/10 07:14:02;;;;;;;144.93;14.00;;;1.70;99.90;;;;;;5026983;28;20464;-61
2022/01/10 07:16:28;;;;;;;160.25;14.85;;;1.70;99.90;;;;;;5020435;28;20037;-61
2022/01/10 07:18:54;;;;;;;99.05;11.15;;;1.70;99.90;;;;;;5018840;28;20037;-61
2022/01/10 07:21:20;;;;;;;126.30;12.68;;;1.80;99.90;;;;;;5009847;28;20046;-61
2022/01/10 07:23:45;;;;;;;91.13;12.85;;;1.70;99.90;;;;;;5021227;28;20120;-61
2022/01/10 07:26:11;;;;;;;118.72;13.05;;;1.70;99.90;;;;;;5017547;28;20041;-61
2022/01/10 07:28:36;;;;;;;95.35;12.50;;;1.70;99.90;;;;;;5023044;28;20914;-61
2022/01/10 07:31:02;;;;;;;90.93;14.27;;;1.70;99.90;;;;;;5021214;28;20364;-62
2022/01/10 07:33:28;;;;;;;43.85;13.23;;;1.70;99.90;;;;;;5027263;28;20106;-61
2022/01/10 07:35:53;;;;;;;78.53;15.18;;;1.70;99.90;;;;;;5026391;28;20064;-61
2022/01/10 07:38:19;;;;;;;88.50;15.73;;;1.70;99.90;;;;;;5022621;28;20047;-61
2022/01/10 07:40:45;;;;;;;49.17;13.18;;;1.70;99.90;;;;;;5015303;28;20136;-61
2022/01/10 07:43:10;;;;;;;65.47;13.90;;;1.70;99.90;;;;;;5017362;28;20078;-61
2022/01/10 07:45:36;;;;;;;75.57;14.35;;;1.70;99.90;;;;;;5017920;28;20041;-62
2022/01/10 07:48:02;;;;;;;44.17;12.75;;;1.70;99.90;;;;;;5016719;28;20046;-61
2022/01/10 07:50:27;;;;;;;106.80;15.40;;;1.70;99.90;;;;;;5025248;28;20046;-61
2022/01/10 07:52:53;;;;;;;81.45;15.85;;;1.70;99.90;;;;;;5022938;28;20048;-61
2022/01/10 07:55:19;;;;;;;84.15;15.30;;;1.70;99.90;;;;;;5024682;28;20077;-61
2022/01/10 07:57:46;;;;;;;112.00;16.35;;;1.70;99.90;;;;;;5027212;28;20416;-61
2022/01/10 08:00:12;;;;;;;125.53;16.52;;;1.70;99.90;;;;;;5014870;28;20096;-61
2022/01/10 08:02:38;;;;;;;90.70;16.27;;;1.70;99.90;;;;;;5022690;28;20124;-61
2022/01/10 08:05:05;;;;;;;94.43;16.45;;;1.70;99.90;;;;;;5012159;28;20087;-61
2022/01/10 08:07:30;;;;;;;106.07;16.50;;;1.70;99.90;;;;;;5025211;28;20087;-61
2022/01/10 08:09:56;;;;;;;122.20;17.40;;;1.70;99.90;;;;;;5028155;28;20509;-61
2022/01/10 08:12:21;;;;;;;85.10;15.60;;;1.70;99.90;;;;;;5029340;28;20582;-61
2022/01/10 08:14:48;;;;;;;73.47;15.30;;;1.70;99.90;;;;;;5018861;28;20084;-61
2022/01/10 08:17:14;;;;;;;129.93;16.42;;;1.70;99.90;;;;;;5031192;28;20049;-61
2022/01/10 08:19:39;;;;;;;142.00;17.88;;;1.80;99.90;;;;;;5024557;28;20057;-61
2022/01/10 08:22:06;;;;;;;131.23;17.55;;;1.80;99.90;;;;;;5023192;28;20045;-61
2022/01/10 08:24:32;;;;;;;85.43;15.40;;;1.80;99.90;;;;;;5008582;28;20053;-61
2022/01/10 08:26:58;;;;;;;83.65;15.43;;;1.80;99.90;;;;;;5017786;28;20057;-61
2022/01/10 08:29:24;;;;;;;110.68;18.08;;;1.90;99.90;;;;;;5019806;28;20104;-61
2022/01/10 08:31:50;;;;;;;48.78;14.63;;;1.80;99.90;;;;;;5027434;28;20045;-61
2022/01/10 08:34:15;;;;;;;108.72;17.83;;;1.80;99.90;;;;;;5022002;28;20172;-60
2022/01/10 08:36:41;;;;;;;78.25;16.40;;;1.90;99.90;;;;;;5015286;28;20042;-61
2022/01/10 08:39:08;;;;;;;113.65;17.38;;;1.90;99.90;;;;;;5018347;28;20582;-60
2022/01/10 08:41:37;;;;;;;123.28;18.40;;;1.90;99.90;;;;;;5021507;28;20090;-61
2022/01/10 08:44:05;;;;;;;134.63;17.83;;;1.90;99.90;;;;;;5022354;28;20099;-61
2022/01/10 08:46:31;;;;;;;170.32;19.60;;;1.90;99.90;;;;;;5021243;28;20041;-61
2022/01/10 08:48:57;;;;;;;129.90;18.48;;;1.90;99.90;;;;;;5016853;28;20049;-61
2022/01/10 08:51:24;;;;;;;93.50;18.25;;;1.80;99.90;;;;;;5020311;28;20037;-61
2022/01/10 08:53:50;;;;;;;90.05;18.13;;;1.90;99.90;;;;;;5011725;28;20037;-61
2022/01/10 08:56:15;;;;;;;76.32;18.35;;;1.80;99.90;;;;;;5018437;28;20046;-61
2022/01/10 08:58:41;;;;;;;66.75;17.70;;;1.90;99.90;;;;;;5018661;28;20045;-61
2022/01/10 09:01:08;;;;;;;73.10;18.75;;;1.90;99.90;;;;;;5016058;28;20030;-61
2022/01/10 09:03:34;;;;;;;60.95;18.85;;;1.90;99.90;;;;;;5010476;28;20482;-61
2022/01/10 09:06:01;;;;;;;33.45;17.08;;;2.00;99.90;;;;;;5019428;28;20077;-61
2022/01/10 09:08:36;;;;;;;34.65;21.02;;;2.00;99.90;;;;;;5023465;28;20061;-61
2022/01/10 09:11:03;;;;;;;26.55;17.48;;;2.00;99.90;;;;;;5011033;28;20091;-61
2022/01/10 09:13:29;;;;;;;25.15;15.93;;;2.10;99.90;;;;;;5006336;28;20062;-60
2022/01/10 09:15:55;;;;;;;28.80;18.70;;;2.10;99.90;;;;;;5024168;28;20053;-61
2022/01/10 09:18:21;;;;;;;22.17;16.55;;;2.20;99.90;;;;;;5012954;28;20050;-61
2022/01/10 09:20:47;;;;;;;27.10;17.33;;;2.20;99.90;;;;;;5024041;28;20044;-61
2022/01/10 09:23:13;;;;;;;24.90;16.35;;;2.20;99.90;;;;;;5013819;28;20065;-61
2022/01/10 09:25:39;;;;;;;22.13;16.00;;;2.30;99.90;;;;;;5030369;28;20053;-61
2022/01/10 09:28:05;;;;;;;34.67;16.05;;;2.30;99.90;;;;;;5022621;28;20057;-61
2022/01/10 09:30:30;;;;;;;20.45;16.58;;;2.30;99.90;;;;;;5019146;28;20121;-61
2022/01/10 09:32:56;;;;;;;24.30;18.13;;;2.30;99.90;;;;;;5021066;28;20452;-62
2022/01/10 09:35:23;;;;;;;22.90;15.88;;;2.30;99.90;;;;;;5017679;28;20512;-61
2022/01/10 09:37:49;;;;;;;27.15;17.00;;;2.40;99.90;;;;;;5009624;28;20141;-61
2022/01/10 09:40:16;;;;;;;20.23;16.10;;;2.40;99.90;;;;;;5027636;28;20140;-61
2022/01/10 09:42:42;;;;;;;24.35;17.75;;;2.40;99.90;;;;;;5018593;28;20050;-61
2022/01/10 09:45:08;;;;;;;27.38;16.58;;;2.40;99.90;;;;;;5020895;28;20041;-61
2022/01/10 09:47:35;;;;;;;23.90;16.50;;;2.50;99.90;;;;;;5016094;28;20069;-61
2022/01/10 09:50:00;;;;;;;26.67;18.02;;;2.50;99.90;;;;;;5022799;28;20482;-61
2022/01/10 09:52:27;;;;;;;29.15;18.52;;;2.50;99.90;;;;;;5021715;28;20056;-61
2022/01/10 09:54:53;;;;;;;23.00;17.90;;;2.50;99.90;;;;;;5017973;28;20041;-61
2022/01/10 09:57:20;;;;;;;30.70;18.23;;;2.60;99.90;;;;;;5028242;28;20038;-61
2022/01/10 09:59:47;;;;;;;36.95;21.17;;;2.60;99.90;;;;;;5023107;28;20045;-61
2022/01/10 10:02:16;;;;;;;27.45;20.42;;;2.60;99.90;;;;;;5015347;28;20046;-61
2022/01/10 10:04:43;;;;;;;34.47;21.58;;;2.60;99.90;;;;;;5014163;28;20053;-61
2022/01/10 10:07:10;;;;;;;33.22;20.08;;;2.70;99.90;;;;;;4992781;28;20046;-61
2022/01/10 10:09:35;;;;;;;31.35;17.58;;;2.70;99.90;;;;;;5016995;28;20033;-62
2022/01/10 10:12:03;;;;;;;29.65;18.65;;;2.70;99.90;;;;;;5017818;28;20478;-62
2022/01/10 10:14:28;;;;;;;30.30;19.73;;;2.70;99.90;;;;;;5024494;28;20050;-61
2022/01/10 10:16:56;;;;;;;35.80;21.95;;;2.80;99.90;;;;;;4997848;28;20123;-61
2022/01/10 10:19:27;;;;;;;36.42;21.80;;;2.80;99.90;;;;;;5011932;28;20080;-61
2022/01/10 10:21:54;;;;;;;33.55;21.58;;;2.80;99.90;;;;;;5014642;28;20482;-62
2022/01/10 10:24:20;;;;;;;30.52;19.55;;;2.90;99.90;;;;;;5017927;28;20061;-62
2022/01/10 10:26:46;;;;;;;35.72;22.13;;;3.00;99.90;;;;;;5013756;28;20132;-62
2022/01/10 10:29:17;;;;;;;38.53;22.48;;;3.20;99.90;;;;;;4997207;28;21063;-62
2022/01/10 10:31:51;;;;;;;33.38;21.05;;;3.30;99.90;;;;;;5019692;28;20051;-62
2022/01/10 10:34:21;;;;;;;34.15;19.23;;;3.40;99.90;;;;;;5021089;28;20061;-62
2022/01/10 10:37:02;;;;;;;28.88;19.27;;;3.50;99.90;;;;;;5022540;28;20029;-62
2022/01/10 10:39:29;;;;;;;26.95;18.70;;;3.50;99.90;;;;;;5019607;28;20041;-62
2022/01/10 10:41:58;;;;;;;31.67;20.35;;;3.60;99.90;;;;;;5022613;28;20130;-62
2022/01/10 10:44:25;;;;;;;33.60;20.08;;;3.70;99.90;;;;;;5017339;28;20801;-62
2022/01/10 10:46:51;;;;;;;28.98;18.50;;;3.70;99.90;;;;;;5017363;28;20048;-62
2022/01/10 10:49:19;;;;;;;33.45;19.75;;;3.80;99.90;;;;;;5027031;28;20052;-62
2022/01/10 10:51:50;;;;;;;27.75;18.98;;;3.90;99.90;;;;;;5024032;28;20046;-62
2022/01/10 10:54:17;;;;;;;30.92;18.67;;;3.90;99.90;;;;;;5025841;28;20081;-62
2022/01/10 10:56:44;;;;;;;35.38;19.50;;;4.00;99.90;;;;;;5023915;28;20055;-62
2022/01/10 10:59:11;;;;;;;32.60;19.10;;;4.10;99.90;;;;;;5016254;28;20370;-63
2022/01/10 11:01:39;;;;;;;32.95;20.85;;;4.10;99.90;;;;;;5009048;28;20057;-62
2022/01/10 11:04:09;;;;;;;29.10;18.52;;;4.10;99.90;;;;;;5014169;28;20120;-61
2022/01/10 11:06:35;;;;;;;28.65;20.15;;;4.10;99.90;;;;;;5021676;28;20128;-61
2022/01/10 11:09:09;;;;;;;33.20;19.63;;;4.30;99.90;;;;;;5021946;28;20115;-61
2022/01/10 11:11:35;;;;;;;29.75;19.75;;;4.30;99.90;;;;;;5020068;28;20046;-62
2022/01/10 11:14:02;;;;;;;26.30;19.88;;;4.40;99.90;;;;;;5024986;28;20138;-62
2022/01/10 11:16:28;;;;;;;35.83;20.08;;;4.50;99.90;;;;;;5025068;28;20493;-61
2022/01/10 11:18:55;;;;;;;39.22;20.50;;;4.50;99.90;;;;;;5020705;28;20045;-62
2022/01/10 11:21:23;;;;;;;37.72;20.23;;;4.60;99.90;;;;;;5018874;28;20045;-61
2022/01/10 11:23:50;;;;;;;31.63;21.63;;;4.70;99.90;;;;;;5016549;28;20043;-60
2022/01/10 11:26:17;;;;;;;29.70;20.63;;;4.70;99.90;;;;;;5011452;28;20073;-60
2022/01/10 11:28:52;;;;;;;31.98;19.80;;;4.70;99.90;;;;;;5009342;28;20498;-60
2022/01/10 11:31:26;;;;;;;36.58;20.50;;;4.80;99.90;;;;;;5019991;28;20215;-60
2022/01/10 11:33:55;;;;;;;36.13;20.02;;;4.80;99.90;;;;;;5013319;28;20050;-60
2022/01/10 11:36:24;;;;;;;30.40;18.50;;;4.90;99.90;;;;;;5025763;28;20049;-61
2022/01/10 11:38:58;;;;;;;34.53;21.88;;;5.00;99.90;;;;;;5013223;28;20050;-61
2022/01/10 11:41:30;;;;;;;33.25;19.77;;;5.00;99.90;;;;;;5005824;28;20054;-61
2022/01/10 11:44:12;;;;;;;36.40;19.83;;;5.10;99.90;;;;;;5015048;28;20104;-61
2022/01/10 11:46:40;;;;;;;27.35;19.35;;;5.20;99.90;;;;;;5017263;28;20335;-61
2022/01/10 11:49:09;;;;;;;31.08;20.13;;;5.40;99.90;;;;;;5021603;28;20052;-61
2022/01/10 11:51:42;;;;;;;30.88;19.90;;;5.60;99.90;;;;;;5019585;28;20049;-61
2022/01/10 11:54:22;;;;;;;30.88;19.08;;;5.70;99.90;;;;;;5015666;28;20042;-61
2022/01/10 11:56:51;;;;;;;35.83;17.80;;;5.90;99.90;;;;;;5018066;28;20042;-61
2022/01/10 11:59:31;;;;;;;27.13;17.92;;;6.10;99.90;;;;;;5010579;28;20371;-61
2022/01/10 12:02:05;;;;;;;30.40;19.45;;;6.30;99.90;;;;;;5020161;28;20508;-61
2022/01/10 12:04:40;;;;;;;30.92;18.33;;;6.30;99.90;;;;;;5017882;28;20054;-61
2022/01/10 12:07:08;;;;;;;35.63;18.25;;;6.50;99.90;;;;;;5011753;28;20088;-61
2022/01/10 12:09:35;;;;;;;30.38;16.83;;;6.60;99.90;;;;;;5021350;28;20049;-61
2022/01/10 12:12:02;;;;;;;26.73;16.52;;;6.80;99.90;;;;;;5025540;28;20038;-61
2022/01/10 12:14:29;;;;;;;24.83;16.05;;;7.00;99.90;;;;;;5015283;28;20561;-61
2022/01/10 12:16:56;;;;;;;26.10;15.02;;;7.10;99.90;;;;;;5008503;28;20138;-61
2022/01/10 12:19:22;;;;;;;31.67;16.48;;;7.20;99.90;;;;;;5020763;28;20056;-61
2022/01/10 12:21:48;;;;;;;29.00;15.65;;;7.40;99.90;;;;;;5021030;28;20042;-61
2022/01/10 12:24:15;;;;;;;27.75;18.15;;;7.50;99.90;;;;;;5024459;28;20125;-61
2022/01/10 12:26:41;;;;;;;29.88;15.52;;;7.50;99.90;;;;;;5016349;28;20041;-61
2022/01/10 12:29:10;;;;;;;26.95;15.48;;;7.60;99.90;;;;;;5013717;28;20077;-61
2022/01/10 12:31:37;;;;;;;31.15;15.38;;;7.70;99.90;;;;;;5002450;28;20050;-61
2022/01/10 12:34:05;;;;;;;26.25;14.48;;;7.70;99.90;;;;;;5019680;28;20128;-61
2022/01/10 12:36:32;;;;;;;27.80;15.88;;;7.80;99.90;;;;;;5017213;28;20047;-61
2022/01/10 12:39:11;;;;;;;28.85;16.63;;;7.80;99.90;;;;;;5013411;28;20432;-61
2022/01/10 12:41:37;;;;;;;26.67;15.70;;;7.80;99.90;;;;;;5025482;28;20080;-62
2022/01/10 12:44:03;;;;;;;26.45;15.32;;;7.80;99.90;;;;;;5024919;28;20137;-62
2022/01/10 12:46:32;;;;;;;29.75;15.80;;;7.80;99.90;;;;;;5017366;28;20124;-61
2022/01/10 12:49:04;;;;;;;31.52;15.75;;;7.90;99.90;;;;;;5018487;28;20036;-62
2022/01/10 12:51:38;;;;;;;21.27;13.88;;;7.80;99.90;;;;;;5021488;28;20056;-61